Aérodrome :
LOGIN :

S'inscrire | Disclaimer

   EN    FR    IT 

 










Légende :    VFR   VFR Marginal   IFR   IFR Intensif   IFR Très Intensif
Visi : 
Plafond : 
>= 8 km
>= 3000ft
5 à 8 km
1000 à 3000 ft
1500m à 5 km
500 à 1000 ft
800 à 1500m
200 à 500 ft
< 800m
< 200 ft
Symboles :   Orages  Brouillard  Fortes neiges  Fortes précipitations  Vent > 20 kt
SIGMETs :   Divers  Orages  Givrage  Turbulence  Onde Orograph.  Cendres Volcan.






- Altitude de l'aérodrome : 141 ft
- Code IATA : SKS


EKSP - Srydstrup Vojens

DERNIER METAR :
  • 191120Z 18011KT 9999 SCT018 BKN060 12/09 Q1003

METARs EXPIRÉS :
  • 191050Z 19013KT 160V220 9999 BKN016 12/09 Q1004
  • 191020Z 19013KT 9999 SCT016 BKN060 12/09 Q1004
  • 190950Z 18014KT 9999 FEW030 SCT060 BKN200 11/09 Q1003
  • 190920Z 18011KT 9999 FEW030 BKN210 11/08 Q1003
  • 190850Z 18010KT 9999 FEW030 BKN210 10/08 Q1003

TAF TAF EKSP
Valide du 19 à 12h jusqu'au 20 à 12h UTC


191121Z 1912/2012 18010KT 9999 BKN030
TEMPO 1912/1921 4000 SHRA BKN012 SCT020CB
TEMPO 1921/2009 2500 BR -SHRA BKN004 SCT020CB



MET'MAP, la Météo Aéronautique d'un coup d'oeil ! - Copyright ORBIFLY Décembre 2007 - Disclaimer

ORBIFLY MET'MAP TEAM :

Programmation & Développement : Alexandra Zaïnal
Conception & Développement : Baudouin d'Aumeries
Co-Programmation & Développement : Marc-Olivier Méhu
Soutien technique & logistique : Manuel Goepfert

Contact : metmap@orbifly.com




SOURCES & CREDITS :

   NOAA